createdAt,value
2023-12-17T00:00:34.332Z,11.30
2023-12-17T00:03:21.193Z,12.10
2023-12-17T00:05:48.539Z,10.80
2023-12-17T00:08:20.231Z,14.20
2023-12-17T00:10:46.543Z,11.80
2023-12-17T00:13:13.328Z,12.50
2023-12-17T00:15:41.982Z,11.80
2023-12-17T00:18:08.493Z,10.20
2023-12-17T00:20:36.731Z,11.50
2023-12-17T00:23:05.136Z,9.80
2023-12-17T00:25:31.385Z,11.20
2023-12-17T00:27:57.604Z,9.40
2023-12-17T00:30:24.017Z,8.40
2023-12-17T00:32:53.236Z,10.40
2023-12-17T00:35:20.106Z,8.60
2023-12-17T00:37:49.044Z,10.30
2023-12-17T00:40:15.482Z,10.90
2023-12-17T00:42:43.112Z,12.80
2023-12-17T00:45:09.547Z,9.50
2023-12-17T00:47:37.303Z,12.00
2023-12-17T00:50:03.921Z,9.00
2023-12-17T00:52:30.306Z,9.80
2023-12-17T00:54:56.803Z,9.00
2023-12-17T00:57:23.081Z,11.30
2023-12-17T00:59:49.765Z,12.10
2023-12-17T01:02:16.237Z,9.00
2023-12-17T01:04:42.778Z,8.00
2023-12-17T01:07:09.207Z,11.60
2023-12-17T01:09:35.542Z,8.70
2023-12-17T01:12:03.990Z,8.50
2023-12-17T01:14:35.260Z,9.70
2023-12-17T01:17:01.984Z,10.60
2023-12-17T01:19:28.481Z,10.20
2023-12-17T01:21:56.402Z,11.50
2023-12-17T01:24:24.203Z,9.10
2023-12-17T01:26:50.807Z,10.60
2023-12-17T01:29:17.204Z,10.90
2023-12-17T01:31:43.661Z,11.10
2023-12-17T01:34:10.064Z,11.00
2023-12-17T01:36:36.635Z,10.00
2023-12-17T01:39:03.013Z,11.20
2023-12-17T01:41:29.404Z,9.90
2023-12-17T01:43:55.752Z,10.60
2023-12-17T01:46:22.108Z,9.50
2023-12-17T01:48:51.065Z,10.60
2023-12-17T01:51:17.869Z,8.70
2023-12-17T01:53:44.179Z,10.30
2023-12-17T01:56:10.556Z,9.60
2023-12-17T01:58:37.295Z,12.00
2023-12-17T02:01:04.024Z,12.00
2023-12-17T02:03:30.657Z,11.70
2023-12-17T02:05:57.249Z,12.50
2023-12-17T02:08:23.605Z,11.60
2023-12-17T02:10:49.873Z,11.50
2023-12-17T02:13:16.236Z,13.10
2023-12-17T02:15:42.927Z,9.00
2023-12-17T02:18:09.207Z,10.10
2023-12-17T02:20:35.949Z,9.10
2023-12-17T02:23:03.078Z,10.70
2023-12-17T02:25:29.817Z,10.30
2023-12-17T02:27:56.147Z,10.00
2023-12-17T02:30:22.596Z,11.00
2023-12-17T02:32:49.125Z,10.10
2023-12-17T02:35:15.854Z,10.80
2023-12-17T02:37:42.334Z,11.20
2023-12-17T02:40:09.686Z,13.40
2023-12-17T02:42:36.542Z,9.20
2023-12-17T02:45:02.888Z,9.70
2023-12-17T02:47:29.630Z,9.30
2023-12-17T02:49:56.177Z,10.20
2023-12-17T02:52:22.521Z,10.10
2023-12-17T02:54:49.295Z,12.70
2023-12-17T02:57:16.029Z,12.30
2023-12-17T02:59:42.954Z,9.30
2023-12-17T03:02:09.767Z,9.50
2023-12-17T03:04:36.044Z,9.50
2023-12-17T03:07:02.404Z,11.50
2023-12-17T03:09:30.457Z,11.50
2023-12-17T03:11:56.894Z,13.00
2023-12-17T03:14:23.295Z,10.80
2023-12-17T03:16:51.068Z,9.60
2023-12-17T03:19:17.433Z,11.30
2023-12-17T03:21:43.900Z,12.00
2023-12-17T03:24:10.528Z,12.10
2023-12-17T03:26:36.884Z,12.20
2023-12-17T03:29:03.648Z,9.60
2023-12-17T03:31:30.182Z,11.70
2023-12-17T03:33:56.527Z,11.00
2023-12-17T03:36:23.636Z,11.00
2023-12-17T03:38:50.363Z,14.90
2023-12-17T03:41:16.648Z,8.40
2023-12-17T03:43:43.109Z,12.10
2023-12-17T03:46:09.643Z,13.10
2023-12-17T03:48:36.286Z,11.50
2023-12-17T03:51:03.097Z,13.00
2023-12-17T03:53:29.433Z,12.50
2023-12-17T03:55:55.904Z,11.40
2023-12-17T03:58:22.557Z,11.40
2023-12-17T04:00:49.000Z,12.30
2023-12-17T04:03:15.537Z,13.50
2023-12-17T04:05:42.243Z,12.60
2023-12-17T04:08:08.545Z,12.90
2023-12-17T04:10:35.254Z,9.50
2023-12-17T04:13:02.063Z,13.30
2023-12-17T04:15:29.105Z,12.80
2023-12-17T04:17:55.582Z,12.90
2023-12-17T04:20:22.235Z,12.30
2023-12-17T04:22:48.970Z,12.00
2023-12-17T04:25:15.525Z,12.50
2023-12-17T04:27:42.147Z,11.50
2023-12-17T04:30:09.036Z,11.10
2023-12-17T04:32:35.926Z,11.50
2023-12-17T04:35:04.160Z,10.80
2023-12-17T04:37:30.491Z,11.10
2023-12-17T04:39:56.706Z,10.80
2023-12-17T04:42:24.086Z,13.00
2023-12-17T04:44:50.695Z,14.20
2023-12-17T04:47:17.806Z,11.50
2023-12-17T04:49:44.308Z,11.50
2023-12-17T04:52:10.774Z,13.70
2023-12-17T04:54:37.133Z,10.80
2023-12-17T04:57:03.957Z,12.60
2023-12-17T04:59:31.019Z,11.10
2023-12-17T05:01:57.546Z,12.30
2023-12-17T05:04:24.269Z,12.70
2023-12-17T05:06:50.987Z,12.50
2023-12-17T05:09:17.455Z,11.70
2023-12-17T05:11:43.784Z,12.00
2023-12-17T05:14:10.174Z,13.00
2023-12-17T05:16:36.408Z,11.60
2023-12-17T05:19:02.913Z,9.60
2023-12-17T05:21:29.463Z,10.70
2023-12-17T05:23:55.929Z,13.30
2023-12-17T05:26:22.775Z,12.80
2023-12-17T05:28:50.257Z,11.20
2023-12-17T05:31:16.857Z,9.10
2023-12-17T05:33:46.947Z,10.30
2023-12-17T05:36:14.061Z,12.60
2023-12-17T05:38:40.589Z,9.70
2023-12-17T05:41:06.827Z,11.80
2023-12-17T05:43:33.568Z,12.80
2023-12-17T05:46:05.983Z,12.40
2023-12-17T05:48:34.405Z,13.20
2023-12-17T05:51:01.120Z,13.60
2023-12-17T05:53:33.675Z,10.90
2023-12-17T05:56:07.172Z,11.40
2023-12-17T05:58:33.677Z,10.40
2023-12-17T06:01:00.155Z,13.10
2023-12-17T06:03:26.781Z,11.30
2023-12-17T06:05:53.426Z,10.80
2023-12-17T06:08:20.021Z,11.40
2023-12-17T06:10:46.364Z,12.10
2023-12-17T06:13:12.696Z,10.90
2023-12-17T06:15:39.020Z,12.80
2023-12-17T06:18:05.424Z,11.50
2023-12-17T06:20:31.973Z,11.60
2023-12-17T06:22:59.520Z,12.10
2023-12-17T06:25:26.106Z,16.40
2023-12-17T06:27:52.588Z,12.30
2023-12-17T06:30:19.336Z,13.60
2023-12-17T06:32:46.291Z,11.00
2023-12-17T06:35:13.080Z,13.10
2023-12-17T06:37:39.837Z,14.70
2023-12-17T06:40:08.063Z,18.50
2023-12-17T06:42:37.737Z,15.10
2023-12-17T06:45:04.312Z,11.90
2023-12-17T06:47:30.719Z,11.50
2023-12-17T06:49:57.396Z,12.40
2023-12-17T06:52:23.871Z,17.60
2023-12-17T06:54:50.198Z,15.90
2023-12-17T06:57:16.784Z,14.00
2023-12-17T06:59:44.458Z,12.10
2023-12-17T07:02:12.104Z,12.70
2023-12-17T07:04:38.434Z,12.70
2023-12-17T07:07:05.012Z,12.20
2023-12-17T07:09:31.645Z,11.30
2023-12-17T07:11:57.927Z,14.40
2023-12-17T07:14:24.279Z,16.10
2023-12-17T07:16:50.835Z,25.30
2023-12-17T07:19:17.364Z,23.70
2023-12-17T07:21:44.244Z,19.40
2023-12-17T07:24:10.685Z,18.40
2023-12-17T07:26:37.180Z,19.00
2023-12-17T07:29:03.793Z,14.70
2023-12-17T07:31:30.084Z,19.30
2023-12-17T07:33:56.712Z,25.80
2023-12-17T07:36:23.101Z,21.20
2023-12-17T07:38:49.517Z,16.20
2023-12-17T07:41:17.377Z,16.80
2023-12-17T07:43:43.636Z,20.30
2023-12-17T07:46:10.375Z,18.00
2023-12-17T07:48:36.828Z,19.90
2023-12-17T07:51:04.199Z,17.00
2023-12-17T07:53:31.506Z,17.20
2023-12-17T07:55:58.351Z,20.60
2023-12-17T07:58:25.187Z,20.60
2023-12-17T08:00:51.554Z,13.20
2023-12-17T08:03:18.097Z,15.10
2023-12-17T08:05:47.812Z,16.20
2023-12-17T08:08:14.155Z,20.30
2023-12-17T08:10:40.436Z,17.90
2023-12-17T08:13:06.748Z,18.30
2023-12-17T08:15:33.252Z,16.60
2023-12-17T08:17:59.631Z,31.40
2023-12-17T08:20:28.775Z,26.70
2023-12-17T08:22:55.366Z,20.60
2023-12-17T08:25:21.769Z,23.20
2023-12-17T08:27:48.080Z,21.90
2023-12-17T08:30:14.521Z,23.60
2023-12-17T08:32:42.542Z,19.20
2023-12-17T08:35:10.062Z,16.00
2023-12-17T08:37:36.515Z,16.40
2023-12-17T08:40:05.500Z,22.60
2023-12-17T08:42:32.448Z,21.20
2023-12-17T08:44:58.988Z,18.80
2023-12-17T08:47:25.578Z,17.60
2023-12-17T08:49:52.170Z,15.20
2023-12-17T08:52:18.738Z,14.90
2023-12-17T08:54:45.308Z,11.80
2023-12-17T08:57:13.904Z,13.80
2023-12-17T08:59:40.215Z,15.40
2023-12-17T09:02:07.569Z,13.80
2023-12-17T09:04:34.108Z,14.40
2023-12-17T09:07:00.878Z,11.20
2023-12-17T09:09:27.273Z,12.20
2023-12-17T09:11:54.388Z,12.70
2023-12-17T09:14:20.816Z,13.20
2023-12-17T09:16:47.144Z,11.40
2023-12-17T09:19:13.838Z,11.60
2023-12-17T09:21:41.105Z,14.50
2023-12-17T09:24:07.546Z,14.80
2023-12-17T09:26:33.859Z,13.10
2023-12-17T09:29:00.494Z,10.90
2023-12-17T09:31:26.967Z,14.70
2023-12-17T09:33:55.400Z,15.10
2023-12-17T09:36:24.031Z,12.70
2023-12-17T09:38:50.563Z,15.10
2023-12-17T09:41:18.475Z,10.60
2023-12-17T09:43:45.115Z,9.90
2023-12-17T09:46:11.496Z,10.70
2023-12-17T09:48:39.076Z,14.20
2023-12-17T09:51:06.255Z,10.80
2023-12-17T09:53:32.652Z,12.40
2023-12-17T09:55:58.939Z,14.50
2023-12-17T09:58:25.197Z,12.20
2023-12-17T10:00:51.654Z,12.60
2023-12-17T10:03:18.491Z,14.80
2023-12-17T10:05:45.449Z,14.40
2023-12-17T10:08:12.402Z,20.10
2023-12-17T10:10:38.794Z,18.50
2023-12-17T10:13:05.650Z,23.70
2023-12-17T10:15:32.559Z,28.40
2023-12-17T10:17:59.318Z,38.10
2023-12-17T10:20:26.046Z,33.40
2023-12-17T10:22:52.410Z,28.70
2023-12-17T10:25:19.676Z,24.40
2023-12-17T10:27:46.030Z,24.70
2023-12-17T10:30:12.471Z,17.10
2023-12-17T10:32:44.047Z,18.20
2023-12-17T10:35:10.769Z,15.10
2023-12-17T10:37:37.129Z,23.00
2023-12-17T10:40:03.388Z,20.20
2023-12-17T10:42:29.774Z,22.00
2023-12-17T10:44:56.365Z,19.80
2023-12-17T10:47:23.102Z,19.10
2023-12-17T10:49:49.585Z,17.80
2023-12-17T10:52:16.022Z,19.10
2023-12-17T10:54:43.114Z,17.00
2023-12-17T10:57:09.546Z,17.70
2023-12-17T10:59:40.950Z,17.80
2023-12-17T11:02:08.063Z,18.20
2023-12-17T11:04:34.683Z,19.60
2023-12-17T11:07:01.456Z,18.40
2023-12-17T11:09:28.316Z,19.30
2023-12-17T11:11:55.164Z,16.10
2023-12-17T11:14:21.629Z,17.00
2023-12-17T11:16:48.115Z,17.00
2023-12-17T11:19:14.939Z,16.90
2023-12-17T11:21:42.362Z,18.50
2023-12-17T11:24:09.519Z,22.00
2023-12-17T11:26:35.917Z,18.70
2023-12-17T11:29:02.231Z,21.60
2023-12-17T11:31:28.570Z,14.40
2023-12-17T11:33:55.259Z,16.10
2023-12-17T11:36:21.722Z,15.10
2023-12-17T11:38:48.021Z,11.80
2023-12-17T11:41:17.799Z,14.50
2023-12-17T11:43:44.615Z,14.80
2023-12-17T11:46:12.601Z,16.00
2023-12-17T11:48:42.351Z,14.30
2023-12-17T11:51:08.890Z,13.50
2023-12-17T11:53:36.797Z,14.60
2023-12-17T11:56:04.608Z,13.30
2023-12-17T11:58:31.039Z,14.60
2023-12-17T12:00:57.333Z,15.90
2023-12-17T12:03:23.793Z,15.90
2023-12-17T12:05:50.806Z,16.60
2023-12-17T12:08:19.272Z,15.70
2023-12-17T12:10:45.583Z,16.00
2023-12-17T12:13:15.772Z,19.20
2023-12-17T12:15:42.099Z,18.80
2023-12-17T12:18:08.956Z,22.90
2023-12-17T12:20:35.919Z,19.20
2023-12-17T12:23:02.246Z,18.20
2023-12-17T12:25:28.703Z,16.60
2023-12-17T12:27:55.181Z,15.90
2023-12-17T12:30:21.987Z,15.50
2023-12-17T12:32:48.648Z,15.40
2023-12-17T12:35:14.916Z,14.70
2023-12-17T12:37:41.554Z,15.20
2023-12-17T12:40:11.509Z,16.30
2023-12-17T12:42:39.191Z,14.10
2023-12-17T12:45:05.853Z,13.70
2023-12-17T12:47:33.005Z,16.10
2023-12-17T12:49:59.451Z,12.60
2023-12-17T12:52:25.864Z,10.20
2023-12-17T12:54:52.877Z,9.40
2023-12-17T12:57:19.762Z,11.00
2023-12-17T12:59:46.278Z,9.60
2023-12-17T13:02:12.676Z,10.70
2023-12-17T13:04:39.329Z,15.60
2023-12-17T13:07:05.719Z,9.90
2023-12-17T13:09:32.422Z,10.80
2023-12-17T13:11:58.753Z,11.20
2023-12-17T13:14:26.059Z,10.40
2023-12-17T13:16:52.517Z,10.90
2023-12-17T13:19:20.084Z,9.80
2023-12-17T13:22:07.324Z,10.70
2023-12-17T13:24:34.542Z,11.60
2023-12-17T13:27:02.903Z,12.60
2023-12-17T13:29:29.393Z,14.30
2023-12-17T13:31:55.868Z,12.30
2023-12-17T13:34:23.209Z,13.20
2023-12-17T13:36:52.309Z,12.90
2023-12-17T13:39:18.768Z,11.70
2023-12-17T13:41:48.995Z,14.50
2023-12-17T13:44:23.657Z,14.90
2023-12-17T13:46:49.995Z,10.90
2023-12-17T13:49:17.089Z,12.20
2023-12-17T13:51:43.410Z,11.20
2023-12-17T13:54:10.194Z,10.80
2023-12-17T13:56:41.017Z,10.90
2023-12-17T13:59:09.199Z,12.80
2023-12-17T14:01:35.618Z,11.90
2023-12-17T14:04:03.771Z,13.50
2023-12-17T14:06:30.860Z,14.80
2023-12-17T14:09:01.505Z,13.70
2023-12-17T14:11:33.930Z,10.40
2023-12-17T14:14:02.074Z,13.40
2023-12-17T14:16:31.686Z,13.90
2023-12-17T14:18:58.487Z,14.00
2023-12-17T14:21:24.869Z,12.30
2023-12-17T14:23:52.003Z,11.00
2023-12-17T14:26:18.740Z,19.90
2023-12-17T14:28:45.070Z,19.90
2023-12-17T14:31:14.473Z,14.10
2023-12-17T14:33:42.281Z,14.10
2023-12-17T14:36:09.068Z,23.70
2023-12-17T14:38:36.007Z,23.10
2023-12-17T14:41:02.395Z,15.60
2023-12-17T14:43:28.684Z,17.20
2023-12-17T14:45:55.354Z,12.00
2023-12-17T14:48:21.811Z,12.60
2023-12-17T14:50:48.884Z,11.80
2023-12-17T14:53:15.136Z,13.60
2023-12-17T14:55:42.032Z,13.70
2023-12-17T14:58:08.468Z,13.80
2023-12-17T15:00:35.600Z,18.60
2023-12-17T15:03:02.287Z,16.50
2023-12-17T15:05:29.818Z,15.60
2023-12-17T15:07:56.525Z,12.70
2023-12-17T15:10:22.767Z,13.30
2023-12-17T15:12:49.407Z,13.60
2023-12-17T15:15:16.542Z,16.50
2023-12-17T15:17:43.852Z,12.80
2023-12-17T15:20:12.487Z,16.60
2023-12-17T15:22:39.141Z,17.70
2023-12-17T15:25:05.659Z,20.20
2023-12-17T15:27:32.194Z,22.10
2023-12-17T15:30:00.818Z,19.60
2023-12-17T15:32:27.446Z,21.00
2023-12-17T15:34:56.300Z,25.90
2023-12-17T15:37:23.599Z,26.80
2023-12-17T15:39:50.169Z,25.70
2023-12-17T15:42:19.184Z,24.20
2023-12-17T15:44:48.316Z,24.90
2023-12-17T15:47:15.285Z,24.80
2023-12-17T15:49:43.019Z,21.90
2023-12-17T15:52:09.254Z,20.40
2023-12-17T15:54:36.245Z,23.80
2023-12-17T15:57:03.201Z,15.90
2023-12-17T15:59:29.621Z,19.80
2023-12-17T16:01:57.039Z,19.30
2023-12-17T16:04:23.684Z,22.90
2023-12-17T16:06:50.489Z,21.30
2023-12-17T16:09:17.694Z,19.40
2023-12-17T16:11:44.308Z,20.80
2023-12-17T16:14:13.477Z,32.30
2023-12-17T16:16:39.847Z,30.40
2023-12-17T16:19:07.625Z,28.50
2023-12-17T16:21:35.073Z,25.60
2023-12-17T16:24:01.486Z,26.70
2023-12-17T16:26:28.379Z,35.30
2023-12-17T16:28:57.297Z,30.30
2023-12-17T16:31:26.952Z,27.10
2023-12-17T16:33:53.582Z,32.50
2023-12-17T16:36:20.177Z,29.90
2023-12-17T16:38:47.229Z,28.50
2023-12-17T16:41:14.212Z,32.10
2023-12-17T16:43:44.784Z,27.90
2023-12-17T16:46:12.443Z,26.70
2023-12-17T16:48:41.510Z,33.50
2023-12-17T16:51:24.431Z,32.60
2023-12-17T16:53:50.803Z,35.70
2023-12-17T16:56:17.712Z,33.60
2023-12-17T16:58:44.210Z,31.90
2023-12-17T17:01:11.110Z,45.20
2023-12-17T17:03:38.251Z,38.30
2023-12-17T17:06:04.984Z,49.10
2023-12-17T17:08:31.336Z,38.60
2023-12-17T17:11:01.315Z,37.10
2023-12-17T17:13:33.908Z,39.70
2023-12-17T17:16:01.228Z,37.30
2023-12-17T17:18:30.701Z,32.80
2023-12-17T17:20:57.306Z,35.10
2023-12-17T17:23:23.756Z,37.90
2023-12-17T17:25:50.623Z,28.70
2023-12-17T17:28:18.118Z,35.00
2023-12-17T17:30:44.508Z,33.80
2023-12-17T17:33:11.116Z,33.40
2023-12-17T17:35:37.650Z,31.20
2023-12-17T17:38:03.965Z,36.20
2023-12-17T17:40:30.510Z,36.30
2023-12-17T17:42:56.809Z,31.40
2023-12-17T17:45:23.086Z,23.60
2023-12-17T17:47:49.473Z,23.30
2023-12-17T17:50:15.811Z,23.40
2023-12-17T17:52:42.345Z,24.00
2023-12-17T17:55:10.792Z,28.30
2023-12-17T17:57:39.444Z,37.50
2023-12-17T18:00:05.880Z,36.70
2023-12-17T18:02:32.245Z,30.20
2023-12-17T18:04:58.600Z,22.00
2023-12-17T18:07:25.086Z,24.90
2023-12-17T18:09:51.387Z,26.50
2023-12-17T18:12:17.892Z,24.20
2023-12-17T18:14:44.157Z,22.50
2023-12-17T18:17:10.711Z,20.60
2023-12-17T18:19:37.219Z,22.70
2023-12-17T18:22:03.845Z,19.00
2023-12-17T18:24:30.487Z,13.30
2023-12-17T18:27:02.653Z,15.70
2023-12-17T18:29:29.115Z,14.40
2023-12-17T18:31:55.547Z,18.10
2023-12-17T18:34:24.226Z,19.90
2023-12-17T18:36:52.423Z,20.20
2023-12-17T18:39:18.860Z,19.50
2023-12-17T18:41:47.318Z,17.00
2023-12-17T18:44:13.569Z,16.30
2023-12-17T18:46:39.992Z,19.50
2023-12-17T18:49:06.497Z,15.40
2023-12-17T18:51:33.057Z,20.50
2023-12-17T18:53:59.574Z,17.00
2023-12-17T18:56:26.085Z,17.00
2023-12-17T18:58:52.418Z,19.50
2023-12-17T19:01:20.035Z,21.30
2023-12-17T19:03:47.007Z,19.70
2023-12-17T19:06:13.732Z,17.20
2023-12-17T19:08:40.955Z,17.50
2023-12-17T19:11:08.460Z,15.90
2023-12-17T19:13:34.790Z,20.60
2023-12-17T19:16:03.533Z,21.00
2023-12-17T19:18:30.509Z,23.60
2023-12-17T19:20:57.029Z,22.00
2023-12-17T19:23:23.520Z,21.80
2023-12-17T19:25:49.894Z,28.50
2023-12-17T19:28:16.152Z,24.00
2023-12-17T19:30:42.610Z,21.60
2023-12-17T19:33:12.464Z,22.70
2023-12-17T19:35:40.940Z,25.10
2023-12-17T19:38:07.577Z,27.00
2023-12-17T19:40:35.145Z,20.80
2023-12-17T19:43:01.475Z,25.90
2023-12-17T19:45:30.139Z,21.40
2023-12-17T19:47:57.655Z,19.50
2023-12-17T19:50:24.874Z,17.50
2023-12-17T19:52:51.358Z,19.30
2023-12-17T19:55:17.821Z,18.50
2023-12-17T19:57:45.429Z,19.80
2023-12-17T20:00:11.870Z,22.10
2023-12-17T20:02:40.624Z,26.40
2023-12-17T20:05:07.224Z,25.90
2023-12-17T20:07:34.012Z,26.90
2023-12-17T20:10:00.525Z,27.60
2023-12-17T20:12:26.964Z,30.80
2023-12-17T20:14:53.198Z,27.50
2023-12-17T20:17:20.746Z,26.40
2023-12-17T20:19:47.142Z,21.10
2023-12-17T20:22:13.632Z,21.00
2023-12-17T20:24:40.312Z,24.10
2023-12-17T20:27:06.998Z,23.20
2023-12-17T20:29:33.405Z,20.30
2023-12-17T20:31:59.780Z,23.30
2023-12-17T20:34:26.283Z,22.10
2023-12-17T20:36:54.415Z,19.70
2023-12-17T20:39:20.764Z,19.20
2023-12-17T20:41:47.349Z,20.80
2023-12-17T20:44:14.059Z,24.50
2023-12-17T20:46:40.533Z,20.70
2023-12-17T20:49:06.876Z,29.60
2023-12-17T20:51:33.593Z,28.80
2023-12-17T20:54:00.405Z,28.80
2023-12-17T20:56:26.676Z,29.00
2023-12-17T20:58:55.994Z,26.50
2023-12-17T21:01:22.434Z,26.10
2023-12-17T21:03:49.441Z,31.40
2023-12-17T21:06:16.154Z,21.70
2023-12-17T21:08:42.689Z,19.90
2023-12-17T21:11:12.466Z,21.00
2023-12-17T21:13:39.772Z,18.40
2023-12-17T21:16:13.764Z,21.50
2023-12-17T21:18:41.061Z,22.80
2023-12-17T21:21:09.661Z,21.60
2023-12-17T21:23:36.312Z,21.30
2023-12-17T21:26:03.224Z,20.20
2023-12-17T21:28:29.764Z,21.20
2023-12-17T21:30:58.548Z,20.50
2023-12-17T21:33:25.072Z,19.70
2023-12-17T21:36:08.332Z,22.70
2023-12-17T21:38:49.254Z,16.70
2023-12-17T21:41:19.179Z,17.10
2023-12-17T21:43:46.328Z,17.60
2023-12-17T21:46:14.229Z,21.40
2023-12-17T21:48:49.892Z,19.40
2023-12-17T21:51:17.691Z,22.00
2023-12-17T21:53:44.199Z,19.40
2023-12-17T21:56:10.638Z,17.10
2023-12-17T21:58:37.096Z,19.80
2023-12-17T22:01:03.904Z,19.60
2023-12-17T22:03:30.334Z,20.60
2023-12-17T22:05:56.672Z,19.30
2023-12-17T22:08:23.466Z,23.40
2023-12-17T22:10:49.855Z,20.50
2023-12-17T22:13:17.860Z,21.50
2023-12-17T22:15:44.365Z,17.50
2023-12-17T22:18:14.949Z,18.70
2023-12-17T22:20:41.685Z,18.30
2023-12-17T22:23:08.079Z,19.20
2023-12-17T22:25:34.471Z,17.40
2023-12-17T22:28:03.323Z,16.20
2023-12-17T22:30:29.915Z,18.60
2023-12-17T22:32:56.400Z,18.70
2023-12-17T22:35:23.570Z,17.10
2023-12-17T22:37:50.372Z,14.70
2023-12-17T22:40:16.796Z,15.70
2023-12-17T22:42:43.452Z,19.30
2023-12-17T22:45:10.243Z,20.60
2023-12-17T22:47:36.693Z,20.60
2023-12-17T22:50:03.144Z,16.50
2023-12-17T22:52:29.581Z,17.30
2023-12-17T22:54:57.752Z,17.10
2023-12-17T22:57:24.517Z,19.80
2023-12-17T22:59:51.032Z,19.00
2023-12-17T23:02:17.254Z,19.90
2023-12-17T23:04:43.682Z,17.30
2023-12-17T23:07:10.123Z,15.20
2023-12-17T23:09:36.769Z,13.50
2023-12-17T23:12:03.324Z,15.70
2023-12-17T23:14:30.245Z,13.20
2023-12-17T23:16:58.874Z,14.00
2023-12-17T23:19:25.329Z,13.20
2023-12-17T23:21:51.701Z,13.00
2023-12-17T23:24:18.022Z,12.40
2023-12-17T23:26:44.518Z,11.20
2023-12-17T23:29:10.887Z,12.80
2023-12-17T23:31:37.075Z,12.30
2023-12-17T23:34:03.527Z,13.60
2023-12-17T23:36:30.059Z,14.30
2023-12-17T23:38:56.371Z,14.50
2023-12-17T23:41:22.763Z,14.10
2023-12-17T23:43:49.002Z,14.50
2023-12-17T23:46:19.849Z,16.90
2023-12-17T23:48:46.385Z,17.30
2023-12-17T23:51:13.040Z,14.90
2023-12-17T23:53:40.573Z,15.50
2023-12-17T23:56:07.282Z,19.70
2023-12-17T23:58:33.682Z,16.70
